sensor_id;sensor_type;location;lat;lon;timestamp;P1;durP1;ratioP1;P2;durP2;ratioP2
44728;SDS011;30457;53.590;9.922;2023-04-28T00:01:40;7.43;;;5.13;;
44728;SDS011;30457;53.590;9.922;2023-04-28T00:06:06;8.95;;;5.00;;
44728;SDS011;30457;53.590;9.922;2023-04-28T00:10:32;8.70;;;5.35;;
44728;SDS011;30457;53.590;9.922;2023-04-28T00:14:58;11.02;;;5.40;;
44728;SDS011;30457;53.590;9.922;2023-04-28T00:19:23;7.80;;;5.03;;
44728;SDS011;30457;53.590;9.922;2023-04-28T00:23:49;8.32;;;5.45;;
44728;SDS011;30457;53.590;9.922;2023-04-28T00:28:15;12.57;;;6.53;;
44728;SDS011;30457;53.590;9.922;2023-04-28T00:32:40;10.65;;;5.95;;
44728;SDS011;30457;53.590;9.922;2023-04-28T00:37:06;6.55;;;4.57;;
44728;SDS011;30457;53.590;9.922;2023-04-28T00:41:33;10.27;;;5.20;;
44728;SDS011;30457;53.590;9.922;2023-04-28T00:45:59;8.02;;;5.60;;
44728;SDS011;30457;53.590;9.922;2023-04-28T00:50:24;11.38;;;5.80;;
44728;SDS011;30457;53.590;9.922;2023-04-28T00:54:50;8.45;;;5.60;;
44728;SDS011;30457;53.590;9.922;2023-04-28T00:59:16;8.60;;;5.68;;
44728;SDS011;30457;53.590;9.922;2023-04-28T01:03:41;11.32;;;5.65;;
44728;SDS011;30457;53.590;9.922;2023-04-28T01:08:08;8.27;;;5.40;;
44728;SDS011;30457;53.590;9.922;2023-04-28T01:12:34;7.72;;;4.97;;
44728;SDS011;30457;53.590;9.922;2023-04-28T01:17:00;8.02;;;4.82;;
44728;SDS011;30457;53.590;9.922;2023-04-28T01:21:26;6.90;;;5.07;;
44728;SDS011;30457;53.590;9.922;2023-04-28T01:25:57;8.40;;;5.45;;
44728;SDS011;30457;53.590;9.922;2023-04-28T01:30:22;6.07;;;4.57;;
44728;SDS011;30457;53.590;9.922;2023-04-28T01:34:48;7.95;;;4.95;;
44728;SDS011;30457;53.590;9.922;2023-04-28T01:39:14;9.57;;;5.20;;
44728;SDS011;30457;53.590;9.922;2023-04-28T01:43:40;7.05;;;4.57;;
44728;SDS011;30457;53.590;9.922;2023-04-28T01:48:07;9.82;;;5.40;;
44728;SDS011;30457;53.590;9.922;2023-04-28T01:52:33;9.48;;;5.47;;
44728;SDS011;30457;53.590;9.922;2023-04-28T01:56:59;7.55;;;4.68;;
44728;SDS011;30457;53.590;9.922;2023-04-28T02:01:26;8.07;;;5.78;;
44728;SDS011;30457;53.590;9.922;2023-04-28T02:05:52;7.25;;;4.60;;
44728;SDS011;30457;53.590;9.922;2023-04-28T02:10:18;7.35;;;4.68;;
44728;SDS011;30457;53.590;9.922;2023-04-28T02:14:43;11.10;;;4.63;;
44728;SDS011;30457;53.590;9.922;2023-04-28T02:19:10;8.00;;;4.70;;
44728;SDS011;30457;53.590;9.922;2023-04-28T02:23:35;10.43;;;5.00;;
44728;SDS011;30457;53.590;9.922;2023-04-28T02:28:03;5.93;;;4.38;;
44728;SDS011;30457;53.590;9.922;2023-04-28T02:32:29;5.88;;;4.05;;
44728;SDS011;30457;53.590;9.922;2023-04-28T02:36:54;5.30;;;3.90;;
44728;SDS011;30457;53.590;9.922;2023-04-28T02:41:20;6.03;;;3.88;;
44728;SDS011;30457;53.590;9.922;2023-04-28T02:45:47;6.80;;;4.80;;
44728;SDS011;30457;53.590;9.922;2023-04-28T02:50:12;8.73;;;5.13;;
44728;SDS011;30457;53.590;9.922;2023-04-28T02:54:38;8.00;;;4.93;;
44728;SDS011;30457;53.590;9.922;2023-04-28T02:59:04;7.18;;;4.78;;
44728;SDS011;30457;53.590;9.922;2023-04-28T03:03:29;8.30;;;4.93;;
44728;SDS011;30457;53.590;9.922;2023-04-28T03:07:55;6.68;;;4.80;;
44728;SDS011;30457;53.590;9.922;2023-04-28T03:12:20;8.57;;;5.05;;
44728;SDS011;30457;53.590;9.922;2023-04-28T03:16:46;7.05;;;5.18;;
44728;SDS011;30457;53.590;9.922;2023-04-28T03:21:12;6.75;;;4.85;;
44728;SDS011;30457;53.590;9.922;2023-04-28T03:25:38;7.68;;;4.82;;
44728;SDS011;30457;53.590;9.922;2023-04-28T03:30:04;6.38;;;4.32;;
44728;SDS011;30457;53.590;9.922;2023-04-28T03:34:30;5.30;;;4.05;;
44728;SDS011;30457;53.590;9.922;2023-04-28T03:38:56;10.80;;;4.72;;
44728;SDS011;30457;53.590;9.922;2023-04-28T03:43:21;7.20;;;4.57;;
44728;SDS011;30457;53.590;9.922;2023-04-28T03:48:13;6.60;;;4.15;;
44728;SDS011;30457;53.590;9.922;2023-04-28T03:52:39;7.57;;;3.40;;
44728;SDS011;30457;53.590;9.922;2023-04-28T03:57:05;6.78;;;4.60;;
44728;SDS011;30457;53.590;9.922;2023-04-28T04:01:32;5.72;;;4.00;;
44728;SDS011;30457;53.590;9.922;2023-04-28T04:05:57;12.38;;;4.63;;
44728;SDS011;30457;53.590;9.922;2023-04-28T04:10:23;6.32;;;3.90;;
44728;SDS011;30457;53.590;9.922;2023-04-28T04:14:49;10.40;;;5.00;;
44728;SDS011;30457;53.590;9.922;2023-04-28T04:19:14;5.57;;;3.72;;
44728;SDS011;30457;53.590;9.922;2023-04-28T04:23:42;6.68;;;4.55;;
44728;SDS011;30457;53.590;9.922;2023-04-28T04:28:07;6.03;;;3.97;;
44728;SDS011;30457;53.590;9.922;2023-04-28T04:32:33;8.57;;;4.50;;
44728;SDS011;30457;53.590;9.922;2023-04-28T04:36:59;5.97;;;4.30;;
44728;SDS011;30457;53.590;9.922;2023-04-28T04:41:25;5.53;;;4.15;;
44728;SDS011;30457;53.590;9.922;2023-04-28T04:46:02;6.45;;;4.10;;
44728;SDS011;30457;53.590;9.922;2023-04-28T04:50:28;5.22;;;4.20;;
44728;SDS011;30457;53.590;9.922;2023-04-28T04:54:55;5.63;;;3.45;;
44728;SDS011;30457;53.590;9.922;2023-04-28T04:59:22;6.20;;;3.58;;
44728;SDS011;30457;53.590;9.922;2023-04-28T05:03:56;7.60;;;3.97;;
44728;SDS011;30457;53.590;9.922;2023-04-28T05:08:21;8.30;;;4.20;;
44728;SDS011;30457;53.590;9.922;2023-04-28T05:12:47;6.72;;;3.97;;
44728;SDS011;30457;53.590;9.922;2023-04-28T05:17:15;5.00;;;3.50;;
44728;SDS011;30457;53.590;9.922;2023-04-28T05:21:41;6.15;;;3.67;;
44728;SDS011;30457;53.590;9.922;2023-04-28T05:26:06;9.95;;;3.30;;
44728;SDS011;30457;53.590;9.922;2023-04-28T05:30:32;6.57;;;4.45;;
44728;SDS011;30457;53.590;9.922;2023-04-28T05:34:58;8.45;;;4.00;;
44728;SDS011;30457;53.590;9.922;2023-04-28T05:39:24;4.90;;;3.55;;
44728;SDS011;30457;53.590;9.922;2023-04-28T05:43:52;5.13;;;3.10;;
44728;SDS011;30457;53.590;9.922;2023-04-28T05:48:18;5.18;;;3.00;;
44728;SDS011;30457;53.590;9.922;2023-04-28T05:52:44;6.72;;;3.72;;
44728;SDS011;30457;53.590;9.922;2023-04-28T05:57:10;4.38;;;2.53;;
44728;SDS011;30457;53.590;9.922;2023-04-28T06:01:35;5.60;;;3.38;;
44728;SDS011;30457;53.590;9.922;2023-04-28T06:06:02;14.23;;;5.38;;
44728;SDS011;30457;53.590;9.922;2023-04-28T06:10:29;4.50;;;3.03;;
44728;SDS011;30457;53.590;9.922;2023-04-28T06:14:55;4.75;;;2.88;;
44728;SDS011;30457;53.590;9.922;2023-04-28T06:19:20;4.50;;;2.60;;
44728;SDS011;30457;53.590;9.922;2023-04-28T06:23:46;3.63;;;2.50;;
44728;SDS011;30457;53.590;9.922;2023-04-28T06:28:12;3.75;;;2.65;;
44728;SDS011;30457;53.590;9.922;2023-04-28T06:32:38;2.60;;;2.40;;
44728;SDS011;30457;53.590;9.922;2023-04-28T06:37:04;4.63;;;2.50;;
44728;SDS011;30457;53.590;9.922;2023-04-28T06:41:30;4.65;;;2.58;;
44728;SDS011;30457;53.590;9.922;2023-04-28T06:45:57;4.15;;;2.50;;
44728;SDS011;30457;53.590;9.922;2023-04-28T06:50:23;5.47;;;2.42;;
44728;SDS011;30457;53.590;9.922;2023-04-28T06:54:49;2.80;;;2.50;;
44728;SDS011;30457;53.590;9.922;2023-04-28T06:59:15;5.32;;;2.53;;
44728;SDS011;30457;53.590;9.922;2023-04-28T07:03:41;2.67;;;1.90;;
44728;SDS011;30457;53.590;9.922;2023-04-28T07:08:06;4.28;;;2.38;;
44728;SDS011;30457;53.590;9.922;2023-04-28T07:12:32;5.38;;;2.17;;
44728;SDS011;30457;53.590;9.922;2023-04-28T07:16:57;7.05;;;3.15;;
44728;SDS011;30457;53.590;9.922;2023-04-28T07:21:23;6.65;;;2.42;;
44728;SDS011;30457;53.590;9.922;2023-04-28T07:25:49;3.67;;;2.28;;
44728;SDS011;30457;53.590;9.922;2023-04-28T07:30:14;3.08;;;1.92;;
44728;SDS011;30457;53.590;9.922;2023-04-28T07:34:40;1.92;;;1.73;;
44728;SDS011;30457;53.590;9.922;2023-04-28T07:39:06;4.55;;;2.13;;
44728;SDS011;30457;53.590;9.922;2023-04-28T07:43:32;3.25;;;2.00;;
44728;SDS011;30457;53.590;9.922;2023-04-28T07:47:57;3.00;;;2.00;;
44728;SDS011;30457;53.590;9.922;2023-04-28T07:52:23;7.90;;;2.30;;
44728;SDS011;30457;53.590;9.922;2023-04-28T07:56:49;2.85;;;1.90;;
44728;SDS011;30457;53.590;9.922;2023-04-28T08:01:15;3.85;;;1.88;;
44728;SDS011;30457;53.590;9.922;2023-04-28T08:05:40;6.65;;;2.45;;
44728;SDS011;30457;53.590;9.922;2023-04-28T08:10:07;4.30;;;2.00;;
44728;SDS011;30457;53.590;9.922;2023-04-28T08:14:34;4.28;;;2.05;;
44728;SDS011;30457;53.590;9.922;2023-04-28T08:19:00;4.45;;;2.17;;
44728;SDS011;30457;53.590;9.922;2023-04-28T08:23:26;3.67;;;1.90;;
44728;SDS011;30457;53.590;9.922;2023-04-28T08:27:55;4.03;;;2.03;;
44728;SDS011;30457;53.590;9.922;2023-04-28T08:32:21;3.25;;;2.50;;
44728;SDS011;30457;53.590;9.922;2023-04-28T08:36:46;2.65;;;2.03;;
44728;SDS011;30457;53.590;9.922;2023-04-28T08:41:13;3.38;;;2.20;;
44728;SDS011;30457;53.590;9.922;2023-04-28T08:45:40;4.70;;;2.25;;
44728;SDS011;30457;53.590;9.922;2023-04-28T08:50:10;2.85;;;2.30;;
44728;SDS011;30457;53.590;9.922;2023-04-28T08:54:36;3.83;;;2.45;;
44728;SDS011;30457;53.590;9.922;2023-04-28T08:59:03;2.47;;;2.03;;
44728;SDS011;30457;53.590;9.922;2023-04-28T09:03:29;3.92;;;2.47;;
44728;SDS011;30457;53.590;9.922;2023-04-28T09:07:56;3.13;;;2.20;;
44728;SDS011;30457;53.590;9.922;2023-04-28T09:12:22;2.55;;;2.15;;
44728;SDS011;30457;53.590;9.922;2023-04-28T09:17:02;4.28;;;2.40;;
44728;SDS011;30457;53.590;9.922;2023-04-28T09:21:44;5.75;;;2.25;;
44728;SDS011;30457;53.590;9.922;2023-04-28T09:26:11;8.40;;;2.35;;
44728;SDS011;30457;53.590;9.922;2023-04-28T09:30:37;3.60;;;2.50;;
44728;SDS011;30457;53.590;9.922;2023-04-28T09:35:05;6.28;;;3.35;;
44728;SDS011;30457;53.590;9.922;2023-04-28T09:39:31;3.50;;;2.15;;
44728;SDS011;30457;53.590;9.922;2023-04-28T09:44:08;3.70;;;2.30;;
44728;SDS011;30457;53.590;9.922;2023-04-28T09:48:38;3.97;;;2.42;;
44728;SDS011;30457;53.590;9.922;2023-04-28T09:53:03;7.95;;;2.80;;
44728;SDS011;30457;53.590;9.922;2023-04-28T09:57:30;4.28;;;2.45;;
44728;SDS011;30457;53.590;9.922;2023-04-28T10:01:57;4.88;;;2.88;;
44728;SDS011;30457;53.590;9.922;2023-04-28T10:06:23;5.43;;;2.45;;
44728;SDS011;30457;53.590;9.922;2023-04-28T10:10:49;8.25;;;2.70;;
44728;SDS011;30457;53.590;9.922;2023-04-28T10:15:19;3.20;;;2.22;;
44728;SDS011;30457;53.590;9.922;2023-04-28T10:19:47;3.72;;;2.22;;
44728;SDS011;30457;53.590;9.922;2023-04-28T10:24:21;6.15;;;2.65;;
44728;SDS011;30457;53.590;9.922;2023-04-28T10:28:53;3.33;;;2.38;;
44728;SDS011;30457;53.590;9.922;2023-04-28T10:38:03;4.68;;;2.70;;
44728;SDS011;30457;53.590;9.922;2023-04-28T10:42:52;9.82;;;3.15;;
44728;SDS011;30457;53.590;9.922;2023-04-28T10:47:17;5.32;;;2.85;;
44728;SDS011;30457;53.590;9.922;2023-04-28T10:51:43;6.43;;;2.83;;
44728;SDS011;30457;53.590;9.922;2023-04-28T10:56:09;7.40;;;2.50;;
44728;SDS011;30457;53.590;9.922;2023-04-28T11:00:40;3.80;;;2.70;;
44728;SDS011;30457;53.590;9.922;2023-04-28T11:05:11;4.90;;;2.85;;
44728;SDS011;30457;53.590;9.922;2023-04-28T11:18:58;3.05;;;2.47;;
44728;SDS011;30457;53.590;9.922;2023-04-28T11:23:28;5.22;;;3.28;;
44728;SDS011;30457;53.590;9.922;2023-04-28T11:28:01;5.70;;;3.05;;
44728;SDS011;30457;53.590;9.922;2023-04-28T11:32:32;5.97;;;2.58;;
44728;SDS011;30457;53.590;9.922;2023-04-28T11:36:58;5.93;;;2.92;;
44728;SDS011;30457;53.590;9.922;2023-04-28T11:41:24;4.47;;;2.83;;
44728;SDS011;30457;53.590;9.922;2023-04-28T11:45:50;3.10;;;2.40;;
44728;SDS011;30457;53.590;9.922;2023-04-28T11:50:16;7.20;;;2.92;;
44728;SDS011;30457;53.590;9.922;2023-04-28T11:54:42;4.53;;;2.88;;
44728;SDS011;30457;53.590;9.922;2023-04-28T11:59:08;3.47;;;2.78;;
44728;SDS011;30457;53.590;9.922;2023-04-28T12:03:44;4.00;;;2.65;;
44728;SDS011;30457;53.590;9.922;2023-04-28T12:08:10;3.40;;;2.03;;
44728;SDS011;30457;53.590;9.922;2023-04-28T12:12:36;4.22;;;2.80;;
44728;SDS011;30457;53.590;9.922;2023-04-28T12:17:02;3.83;;;2.80;;
44728;SDS011;30457;53.590;9.922;2023-04-28T12:21:28;5.97;;;2.72;;
44728;SDS011;30457;53.590;9.922;2023-04-28T12:25:54;5.10;;;3.08;;
44728;SDS011;30457;53.590;9.922;2023-04-28T12:34:45;7.63;;;2.80;;
44728;SDS011;30457;53.590;9.922;2023-04-28T12:39:14;5.78;;;3.25;;
44728;SDS011;30457;53.590;9.922;2023-04-28T12:43:40;3.70;;;2.95;;
44728;SDS011;30457;53.590;9.922;2023-04-28T12:48:08;4.55;;;2.65;;
44728;SDS011;30457;53.590;9.922;2023-04-28T12:52:34;4.55;;;2.85;;
44728;SDS011;30457;53.590;9.922;2023-04-28T12:57:00;3.55;;;2.75;;
44728;SDS011;30457;53.590;9.922;2023-04-28T13:01:27;4.13;;;3.20;;
44728;SDS011;30457;53.590;9.922;2023-04-28T13:05:53;5.55;;;2.90;;
44728;SDS011;30457;53.590;9.922;2023-04-28T13:10:19;4.43;;;2.83;;
44728;SDS011;30457;53.590;9.922;2023-04-28T13:14:47;5.53;;;2.85;;
44728;SDS011;30457;53.590;9.922;2023-04-28T13:19:12;7.18;;;3.50;;
44728;SDS011;30457;53.590;9.922;2023-04-28T13:23:38;15.82;;;3.35;;
44728;SDS011;30457;53.590;9.922;2023-04-28T13:28:04;5.65;;;2.90;;
44728;SDS011;30457;53.590;9.922;2023-04-28T13:32:30;6.00;;;3.33;;
44728;SDS011;30457;53.590;9.922;2023-04-28T13:36:56;4.50;;;2.88;;
44728;SDS011;30457;53.590;9.922;2023-04-28T13:41:21;3.08;;;2.63;;
44728;SDS011;30457;53.590;9.922;2023-04-28T13:45:47;3.97;;;3.40;;
44728;SDS011;30457;53.590;9.922;2023-04-28T13:50:14;4.03;;;2.90;;
44728;SDS011;30457;53.590;9.922;2023-04-28T13:54:40;5.13;;;3.28;;
44728;SDS011;30457;53.590;9.922;2023-04-28T13:59:06;6.20;;;3.45;;
44728;SDS011;30457;53.590;9.922;2023-04-28T14:03:31;7.20;;;3.47;;
44728;SDS011;30457;53.590;9.922;2023-04-28T14:07:57;4.65;;;3.05;;
44728;SDS011;30457;53.590;9.922;2023-04-28T14:12:23;4.55;;;3.20;;
44728;SDS011;30457;53.590;9.922;2023-04-28T14:16:49;5.15;;;3.55;;
44728;SDS011;30457;53.590;9.922;2023-04-28T14:21:14;9.70;;;4.43;;
44728;SDS011;30457;53.590;9.922;2023-04-28T14:25:40;6.25;;;3.45;;
44728;SDS011;30457;53.590;9.922;2023-04-28T14:30:07;7.68;;;3.83;;
44728;SDS011;30457;53.590;9.922;2023-04-28T14:34:33;10.10;;;3.40;;
44728;SDS011;30457;53.590;9.922;2023-04-28T14:38:58;6.43;;;3.83;;
44728;SDS011;30457;53.590;9.922;2023-04-28T14:43:24;5.82;;;3.45;;
44728;SDS011;30457;53.590;9.922;2023-04-28T14:47:49;6.53;;;3.47;;
44728;SDS011;30457;53.590;9.922;2023-04-28T14:52:15;8.02;;;3.55;;
44728;SDS011;30457;53.590;9.922;2023-04-28T14:56:41;5.43;;;3.53;;
44728;SDS011;30457;53.590;9.922;2023-04-28T15:01:07;6.88;;;3.78;;
44728;SDS011;30457;53.590;9.922;2023-04-28T15:05:33;7.30;;;3.45;;
44728;SDS011;30457;53.590;9.922;2023-04-28T15:09:59;6.55;;;4.45;;
44728;SDS011;30457;53.590;9.922;2023-04-28T15:14:24;8.50;;;3.85;;
44728;SDS011;30457;53.590;9.922;2023-04-28T15:18:50;4.80;;;3.50;;
44728;SDS011;30457;53.590;9.922;2023-04-28T15:23:16;3.97;;;3.40;;
44728;SDS011;30457;53.590;9.922;2023-04-28T15:27:41;6.05;;;3.63;;
44728;SDS011;30457;53.590;9.922;2023-04-28T15:32:07;9.85;;;4.47;;
44728;SDS011;30457;53.590;9.922;2023-04-28T15:36:36;7.22;;;3.70;;
44728;SDS011;30457;53.590;9.922;2023-04-28T15:41:03;7.38;;;3.83;;
44728;SDS011;30457;53.590;9.922;2023-04-28T15:45:28;6.15;;;4.63;;
44728;SDS011;30457;53.590;9.922;2023-04-28T15:49:54;7.13;;;4.07;;
44728;SDS011;30457;53.590;9.922;2023-04-28T15:54:20;7.57;;;4.50;;
44728;SDS011;30457;53.590;9.922;2023-04-28T15:58:45;8.63;;;4.13;;
44728;SDS011;30457;53.590;9.922;2023-04-28T16:03:11;8.32;;;4.45;;
44728;SDS011;30457;53.590;9.922;2023-04-28T16:07:37;6.60;;;4.28;;
44728;SDS011;30457;53.590;9.922;2023-04-28T16:12:04;9.63;;;4.60;;
44728;SDS011;30457;53.590;9.922;2023-04-28T16:16:30;7.05;;;4.20;;
44728;SDS011;30457;53.590;9.922;2023-04-28T16:20:56;7.22;;;3.80;;
44728;SDS011;30457;53.590;9.922;2023-04-28T16:25:21;5.15;;;3.30;;
44728;SDS011;30457;53.590;9.922;2023-04-28T16:29:47;7.65;;;3.70;;
44728;SDS011;30457;53.590;9.922;2023-04-28T16:34:13;8.35;;;4.32;;
44728;SDS011;30457;53.590;9.922;2023-04-28T16:38:39;5.55;;;3.75;;
44728;SDS011;30457;53.590;9.922;2023-04-28T16:43:05;4.07;;;3.28;;
44728;SDS011;30457;53.590;9.922;2023-04-28T16:47:30;5.57;;;3.72;;
44728;SDS011;30457;53.590;9.922;2023-04-28T16:52:01;7.18;;;4.18;;
44728;SDS011;30457;53.590;9.922;2023-04-28T16:56:30;6.25;;;4.15;;
44728;SDS011;30457;53.590;9.922;2023-04-28T17:00:56;4.85;;;3.65;;
44728;SDS011;30457;53.590;9.922;2023-04-28T17:05:21;5.72;;;4.55;;
44728;SDS011;30457;53.590;9.922;2023-04-28T17:09:47;6.35;;;4.18;;
44728;SDS011;30457;53.590;9.922;2023-04-28T17:14:13;6.60;;;4.20;;
44728;SDS011;30457;53.590;9.922;2023-04-28T17:18:39;4.93;;;3.72;;
44728;SDS011;30457;53.590;9.922;2023-04-28T17:23:06;6.68;;;4.40;;
44728;SDS011;30457;53.590;9.922;2023-04-28T17:27:31;5.18;;;4.05;;
44728;SDS011;30457;53.590;9.922;2023-04-28T17:31:57;6.57;;;4.85;;
44728;SDS011;30457;53.590;9.922;2023-04-28T17:36:22;6.05;;;4.20;;
44728;SDS011;30457;53.590;9.922;2023-04-28T17:40:50;9.88;;;5.35;;
44728;SDS011;30457;53.590;9.922;2023-04-28T17:45:16;13.20;;;4.70;;
44728;SDS011;30457;53.590;9.922;2023-04-28T17:49:42;7.70;;;4.60;;
44728;SDS011;30457;53.590;9.922;2023-04-28T17:54:07;7.90;;;5.18;;
44728;SDS011;30457;53.590;9.922;2023-04-28T17:58:33;7.13;;;5.63;;
44728;SDS011;30457;53.590;9.922;2023-04-28T18:03:00;8.10;;;5.60;;
44728;SDS011;30457;53.590;9.922;2023-04-28T18:07:26;9.45;;;5.57;;
44728;SDS011;30457;53.590;9.922;2023-04-28T18:11:52;7.50;;;5.35;;
44728;SDS011;30457;53.590;9.922;2023-04-28T18:16:19;8.75;;;5.57;;
44728;SDS011;30457;53.590;9.922;2023-04-28T18:20:45;7.78;;;5.18;;
44728;SDS011;30457;53.590;9.922;2023-04-28T18:25:11;9.73;;;5.53;;
44728;SDS011;30457;53.590;9.922;2023-04-28T18:29:40;10.60;;;5.85;;
44728;SDS011;30457;53.590;9.922;2023-04-28T18:34:06;10.52;;;6.30;;
44728;SDS011;30457;53.590;9.922;2023-04-28T18:38:32;10.32;;;5.75;;
44728;SDS011;30457;53.590;9.922;2023-04-28T18:43:00;9.02;;;6.05;;
44728;SDS011;30457;53.590;9.922;2023-04-28T18:47:26;10.93;;;6.00;;
44728;SDS011;30457;53.590;9.922;2023-04-28T18:51:51;11.98;;;6.00;;
44728;SDS011;30457;53.590;9.922;2023-04-28T18:56:17;8.80;;;6.32;;
44728;SDS011;30457;53.590;9.922;2023-04-28T19:00:44;11.95;;;7.25;;
44728;SDS011;30457;53.590;9.922;2023-04-28T19:05:09;14.55;;;7.03;;
44728;SDS011;30457;53.590;9.922;2023-04-28T19:09:38;8.57;;;6.45;;
44728;SDS011;30457;53.590;9.922;2023-04-28T19:14:03;12.43;;;7.18;;
44728;SDS011;30457;53.590;9.922;2023-04-28T19:18:30;10.80;;;6.90;;
44728;SDS011;30457;53.590;9.922;2023-04-28T19:22:56;13.27;;;6.93;;
44728;SDS011;30457;53.590;9.922;2023-04-28T19:27:29;11.82;;;7.78;;
44728;SDS011;30457;53.590;9.922;2023-04-28T19:31:56;13.45;;;8.68;;
44728;SDS011;30457;53.590;9.922;2023-04-28T19:36:21;10.40;;;8.15;;
44728;SDS011;30457;53.590;9.922;2023-04-28T19:40:48;12.48;;;8.52;;
44728;SDS011;30457;53.590;9.922;2023-04-28T19:45:17;16.73;;;8.32;;
44728;SDS011;30457;53.590;9.922;2023-04-28T19:49:43;10.10;;;7.93;;
44728;SDS011;30457;53.590;9.922;2023-04-28T19:54:09;15.38;;;7.65;;
44728;SDS011;30457;53.590;9.922;2023-04-28T19:58:34;10.40;;;7.57;;
44728;SDS011;30457;53.590;9.922;2023-04-28T20:03:01;13.80;;;8.32;;
44728;SDS011;30457;53.590;9.922;2023-04-28T20:07:26;14.18;;;7.28;;
44728;SDS011;30457;53.590;9.922;2023-04-28T20:11:52;14.18;;;7.47;;
44728;SDS011;30457;53.590;9.922;2023-04-28T20:16:18;12.73;;;7.60;;
44728;SDS011;30457;53.590;9.922;2023-04-28T20:20:50;11.73;;;7.40;;
44728;SDS011;30457;53.590;9.922;2023-04-28T20:25:16;12.90;;;7.35;;
44728;SDS011;30457;53.590;9.922;2023-04-28T20:29:42;10.02;;;7.35;;
44728;SDS011;30457;53.590;9.922;2023-04-28T20:34:09;11.45;;;7.25;;
44728;SDS011;30457;53.590;9.922;2023-04-28T20:38:34;9.32;;;6.95;;
44728;SDS011;30457;53.590;9.922;2023-04-28T20:43:01;13.52;;;7.15;;
44728;SDS011;30457;53.590;9.922;2023-04-28T20:47:27;12.40;;;6.90;;
44728;SDS011;30457;53.590;9.922;2023-04-28T20:51:57;14.00;;;6.65;;
44728;SDS011;30457;53.590;9.922;2023-04-28T20:56:27;9.60;;;6.18;;
44728;SDS011;30457;53.590;9.922;2023-04-28T21:00:53;11.88;;;6.90;;
44728;SDS011;30457;53.590;9.922;2023-04-28T21:05:18;13.30;;;6.65;;
44728;SDS011;30457;53.590;9.922;2023-04-28T21:09:44;12.13;;;7.18;;
44728;SDS011;30457;53.590;9.922;2023-04-28T21:14:10;11.52;;;7.72;;
44728;SDS011;30457;53.590;9.922;2023-04-28T21:18:35;8.73;;;6.63;;
44728;SDS011;30457;53.590;9.922;2023-04-28T21:23:01;12.10;;;6.18;;
44728;SDS011;30457;53.590;9.922;2023-04-28T21:27:27;7.72;;;5.50;;
44728;SDS011;30457;53.590;9.922;2023-04-28T21:31:52;9.13;;;5.78;;
44728;SDS011;30457;53.590;9.922;2023-04-28T21:36:18;10.18;;;6.32;;
44728;SDS011;30457;53.590;9.922;2023-04-28T21:40:44;8.30;;;6.28;;
44728;SDS011;30457;53.590;9.922;2023-04-28T21:45:10;11.27;;;6.70;;
44728;SDS011;30457;53.590;9.922;2023-04-28T21:49:35;11.10;;;6.90;;
44728;SDS011;30457;53.590;9.922;2023-04-28T21:54:01;13.43;;;7.68;;
44728;SDS011;30457;53.590;9.922;2023-04-28T21:58:27;13.25;;;7.07;;
44728;SDS011;30457;53.590;9.922;2023-04-28T22:02:52;9.30;;;6.28;;
44728;SDS011;30457;53.590;9.922;2023-04-28T22:07:20;10.25;;;6.25;;
44728;SDS011;30457;53.590;9.922;2023-04-28T22:11:45;11.55;;;6.22;;
44728;SDS011;30457;53.590;9.922;2023-04-28T22:16:11;9.82;;;5.88;;
44728;SDS011;30457;53.590;9.922;2023-04-28T22:20:37;8.63;;;5.30;;
44728;SDS011;30457;53.590;9.922;2023-04-28T22:25:02;9.60;;;5.25;;
44728;SDS011;30457;53.590;9.922;2023-04-28T22:29:28;6.47;;;5.45;;
44728;SDS011;30457;53.590;9.922;2023-04-28T22:33:54;6.60;;;5.15;;
44728;SDS011;30457;53.590;9.922;2023-04-28T22:38:19;6.78;;;4.45;;
44728;SDS011;30457;53.590;9.922;2023-04-28T22:42:45;9.63;;;5.05;;
44728;SDS011;30457;53.590;9.922;2023-04-28T22:47:11;9.82;;;5.43;;
44728;SDS011;30457;53.590;9.922;2023-04-28T22:51:36;11.02;;;5.10;;
44728;SDS011;30457;53.590;9.922;2023-04-28T22:56:02;7.20;;;4.50;;
44728;SDS011;30457;53.590;9.922;2023-04-28T23:00:27;6.80;;;4.60;;
44728;SDS011;30457;53.590;9.922;2023-04-28T23:04:53;6.38;;;4.25;;
44728;SDS011;30457;53.590;9.922;2023-04-28T23:09:19;7.15;;;4.65;;
44728;SDS011;30457;53.590;9.922;2023-04-28T23:13:45;6.78;;;5.00;;
44728;SDS011;30457;53.590;9.922;2023-04-28T23:18:10;8.43;;;4.95;;
44728;SDS011;30457;53.590;9.922;2023-04-28T23:22:36;7.65;;;5.10;;
44728;SDS011;30457;53.590;9.922;2023-04-28T23:27:01;6.15;;;4.72;;
44728;SDS011;30457;53.590;9.922;2023-04-28T23:31:27;6.53;;;4.65;;
44728;SDS011;30457;53.590;9.922;2023-04-28T23:35:54;7.00;;;4.85;;
44728;SDS011;30457;53.590;9.922;2023-04-28T23:40:20;7.20;;;4.72;;
44728;SDS011;30457;53.590;9.922;2023-04-28T23:44:45;9.80;;;5.30;;
44728;SDS011;30457;53.590;9.922;2023-04-28T23:49:11;9.13;;;6.28;;
44728;SDS011;30457;53.590;9.922;2023-04-28T23:53:37;8.32;;;5.45;;
44728;SDS011;30457;53.590;9.922;2023-04-28T23:58:02;7.00;;;5.80;;
